Time;durP1;ratioP1;P1;durP2;ratioP2;P2;SDS_P1;SDS_P2;PMS_P1;PMS_P2;Temp;Humidity;BMP_temperature;BMP_pressure;BME280_temperature;BME280_humidity;BME280_pressure;Samples;Min_cycle;Max_cycle;Signal;HPM_P1;HPM_P2
2023/09/28 00:02:19;;;;;;;5.13;4.63;;;14.60;99.90;;;;;;5020631;28;20255;-57
2023/09/28 00:04:45;;;;;;;7.63;5.23;;;14.60;99.90;;;;;;5019371;28;20203;-57
2023/09/28 00:07:12;;;;;;;8.23;4.80;;;14.50;99.90;;;;;;5020149;28;20756;-57
2023/09/28 00:09:37;;;;;;;9.87;5.63;;;14.40;99.90;;;;;;5022593;28;20580;-56
2023/09/28 00:12:04;;;;;;;4.93;4.10;;;14.40;99.90;;;;;;5022111;28;20206;-56
2023/09/28 00:14:30;;;;;;;5.10;4.60;;;14.30;99.90;;;;;;5019635;28;20246;-56
2023/09/28 00:16:57;;;;;;;6.37;4.90;;;14.20;99.90;;;;;;5019321;28;20672;-56
2023/09/28 00:19:25;;;;;;;6.40;5.57;;;14.20;99.90;;;;;;5027170;28;20245;-56
2023/09/28 00:21:52;;;;;;;5.40;4.90;;;14.20;99.90;;;;;;5018936;28;20218;-57
2023/09/28 00:24:18;;;;;;;6.67;5.20;;;14.20;99.90;;;;;;5021051;28;20238;-56
2023/09/28 00:26:47;;;;;;;5.93;5.43;;;14.30;99.90;;;;;;5021948;28;20704;-56
2023/09/28 00:29:12;;;;;;;4.93;4.50;;;14.40;99.90;;;;;;5021117;28;20198;-58
2023/09/28 00:31:39;;;;;;;6.30;4.87;;;14.40;99.90;;;;;;5018966;28;20261;-56
2023/09/28 00:34:06;;;;;;;5.43;4.67;;;14.40;99.90;;;;;;5019365;28;20585;-56
2023/09/28 00:36:33;;;;;;;5.70;5.07;;;14.40;99.90;;;;;;5022022;28;20229;-56
2023/09/28 00:39:00;;;;;;;6.47;5.20;;;14.40;99.90;;;;;;5022140;28;20704;-56
2023/09/28 00:41:26;;;;;;;8.23;5.40;;;14.30;99.90;;;;;;5019114;28;20207;-55
2023/09/28 00:43:54;;;;;;;5.77;5.17;;;14.20;99.90;;;;;;5019081;28;20206;-56
2023/09/28 00:46:20;;;;;;;5.23;4.73;;;14.30;99.90;;;;;;5021085;28;20241;-56
2023/09/28 00:48:58;;;;;;;5.97;5.23;;;14.30;99.90;;;;;;5022305;28;20256;-56
2023/09/28 00:51:27;;;;;;;7.13;5.83;;;14.30;99.90;;;;;;5022050;28;20252;-56
2023/09/28 00:53:56;;;;;;;5.70;5.20;;;14.30;99.90;;;;;;5023699;28;20210;-57
2023/09/28 00:56:23;;;;;;;7.10;5.63;;;14.30;99.90;;;;;;5021144;28;20601;-57
2023/09/28 00:58:52;;;;;;;5.77;5.17;;;14.30;99.90;;;;;;5022247;28;20222;-56
2023/09/28 01:01:18;;;;;;;5.70;5.20;;;14.30;99.90;;;;;;5019833;28;20305;-57
2023/09/28 01:03:45;;;;;;;5.80;5.20;;;14.20;99.90;;;;;;5018658;28;20401;-56
2023/09/28 01:06:12;;;;;;;10.80;5.33;;;14.20;99.90;;;;;;5019277;28;20313;-56
2023/09/28 01:08:39;;;;;;;7.57;5.43;;;14.30;99.90;;;;;;5022216;28;20252;-56
2023/09/28 01:11:06;;;;;;;7.47;4.90;;;14.20;99.90;;;;;;5022133;28;20206;-56
2023/09/28 01:13:33;;;;;;;5.77;5.27;;;14.20;99.90;;;;;;5022197;28;20563;-57
2023/09/28 01:16:00;;;;;;;7.43;4.93;;;14.20;99.90;;;;;;5021752;28;20352;-55
2023/09/28 01:18:26;;;;;;;5.47;4.97;;;14.30;99.90;;;;;;5021737;28;20698;-55
2023/09/28 01:20:54;;;;;;;5.53;5.00;;;14.30;99.90;;;;;;5021838;28;20206;-57
2023/09/28 01:23:21;;;;;;;6.40;5.23;;;14.30;99.90;;;;;;5019657;28;20214;-56
2023/09/28 01:25:49;;;;;;;6.00;5.13;;;14.30;99.90;;;;;;5024072;28;20253;-55
2023/09/28 01:28:16;;;;;;;5.53;5.00;;;14.20;99.90;;;;;;5020269;28;20600;-56
2023/09/28 01:30:43;;;;;;;6.10;4.83;;;14.30;99.90;;;;;;5019613;28;20206;-57
2023/09/28 01:33:10;;;;;;;4.80;4.30;;;14.30;99.90;;;;;;5022800;28;20306;-57
2023/09/28 01:35:37;;;;;;;5.70;4.30;;;14.20;99.90;;;;;;5021102;28;20604;-56
2023/09/28 01:38:12;;;;;;;5.20;4.70;;;14.20;99.90;;;;;;5030240;28;20334;-57
2023/09/28 01:40:41;;;;;;;5.23;4.20;;;14.20;99.90;;;;;;5022282;28;20297;-58
2023/09/28 01:43:07;;;;;;;5.90;4.77;;;14.20;99.90;;;;;;5022159;28;20215;-58
2023/09/28 01:45:34;;;;;;;6.13;5.00;;;14.10;99.90;;;;;;5024731;28;20742;-58
2023/09/28 01:48:00;;;;;;;6.93;5.10;;;14.10;99.90;;;;;;5025300;28;20580;-56
2023/09/28 01:50:27;;;;;;;7.20;4.80;;;14.10;99.90;;;;;;5022317;28;20203;-55
2023/09/28 01:52:53;;;;;;;6.17;5.03;;;14.10;99.90;;;;;;5028269;28;20241;-56
2023/09/28 01:55:20;;;;;;;7.37;5.07;;;14.10;99.90;;;;;;5022812;28;20288;-55
2023/09/28 01:57:48;;;;;;;7.43;5.50;;;14.20;99.90;;;;;;5022230;28;20321;-55
2023/09/28 02:00:18;;;;;;;7.40;4.90;;;14.20;99.90;;;;;;5022441;28;20211;-55
2023/09/28 02:02:45;;;;;;;6.03;5.23;;;14.20;99.90;;;;;;5019627;28;20207;-55
2023/09/28 02:05:12;;;;;;;5.50;5.00;;;14.10;99.90;;;;;;5029393;28;20210;-58
2023/09/28 02:07:38;;;;;;;5.87;5.27;;;14.20;99.90;;;;;;5021554;28;20278;-56
2023/09/28 02:10:06;;;;;;;5.77;5.23;;;14.30;99.90;;;;;;5021505;28;20215;-56
2023/09/28 02:12:32;;;;;;;5.47;4.97;;;14.50;99.90;;;;;;5021391;28;20213;-55
2023/09/28 02:15:03;;;;;;;5.40;4.90;;;14.60;99.90;;;;;;5021204;28;20206;-56
2023/09/28 02:17:29;;;;;;;5.50;5.00;;;14.60;99.90;;;;;;5024457;28;20230;-56
2023/09/28 02:19:56;;;;;;;6.17;5.03;;;14.70;99.90;;;;;;5024583;28;20206;-56
2023/09/28 02:22:22;;;;;;;7.13;4.93;;;14.80;99.90;;;;;;5022285;28;20225;-56
2023/09/28 02:24:50;;;;;;;6.57;5.03;;;14.90;99.90;;;;;;5020835;28;20206;-55
2023/09/28 02:27:17;;;;;;;5.67;4.50;;;14.90;99.90;;;;;;5028857;28;20226;-56
2023/09/28 02:29:44;;;;;;;5.53;4.93;;;14.90;99.90;;;;;;5020890;28;20645;-58
2023/09/28 02:32:13;;;;;;;6.53;4.83;;;14.90;99.90;;;;;;5021237;28;20301;-55
2023/09/28 02:34:40;;;;;;;7.97;4.73;;;14.90;99.90;;;;;;5024528;28;20210;-55
2023/09/28 02:37:06;;;;;;;5.97;5.20;;;14.80;99.90;;;;;;5024162;28;20602;-57
2023/09/28 02:39:35;;;;;;;5.43;4.90;;;14.90;99.90;;;;;;5024185;28;20272;-56
2023/09/28 02:42:07;;;;;;;5.43;4.50;;;14.80;99.90;;;;;;5023936;28;20213;-58
2023/09/28 02:44:34;;;;;;;6.30;5.13;;;14.90;99.90;;;;;;5024356;28;20234;-56
2023/09/28 02:47:00;;;;;;;7.57;4.70;;;14.90;99.90;;;;;;5023771;28;20597;-56
2023/09/28 02:49:28;;;;;;;5.73;4.87;;;14.90;99.90;;;;;;5024102;28;20284;-57
2023/09/28 02:51:54;;;;;;;5.00;4.47;;;14.90;99.90;;;;;;5024042;28;20237;-56
2023/09/28 02:54:21;;;;;;;5.20;4.70;;;14.90;99.90;;;;;;5021873;28;20250;-58
2023/09/28 02:56:49;;;;;;;4.80;4.30;;;15.00;99.90;;;;;;5025786;28;20743;-55
2023/09/28 02:59:21;;;;;;;5.10;4.60;;;15.10;99.90;;;;;;5022842;28;20226;-55
2023/09/28 03:01:47;;;;;;;5.17;4.67;;;15.10;99.90;;;;;;5020759;28;20207;-56
2023/09/28 03:04:15;;;;;;;7.07;5.03;;;15.10;99.90;;;;;;5021183;28;20202;-56
2023/09/28 03:06:44;;;;;;;5.47;4.90;;;15.10;99.90;;;;;;5023489;28;20225;-56
2023/09/28 03:09:12;;;;;;;5.47;4.50;;;15.10;99.90;;;;;;5023433;28;20257;-59
2023/09/28 03:11:39;;;;;;;6.40;4.60;;;15.10;99.90;;;;;;5023756;28;20210;-55
2023/09/28 03:14:06;;;;;;;5.30;4.80;;;15.10;99.90;;;;;;5023774;28;20226;-56
2023/09/28 03:16:32;;;;;;;5.07;4.33;;;15.20;99.90;;;;;;5023554;28;20509;-56
2023/09/28 03:19:00;;;;;;;5.07;4.60;;;15.10;99.90;;;;;;5023803;28;20384;-59
2023/09/28 03:21:27;;;;;;;5.07;4.43;;;15.10;99.90;;;;;;5020836;28;20242;-56
2023/09/28 03:23:56;;;;;;;6.47;4.33;;;15.10;99.90;;;;;;5026310;28;20202;-56
2023/09/28 03:26:23;;;;;;;4.73;4.20;;;15.10;99.90;;;;;;5021157;28;20245;-59
2023/09/28 03:28:49;;;;;;;5.40;4.53;;;15.10;99.90;;;;;;5020187;28;20646;-56
2023/09/28 03:31:15;;;;;;;5.77;4.33;;;15.10;99.90;;;;;;5021288;28;20211;-56
2023/09/28 03:33:42;;;;;;;7.03;4.63;;;15.10;99.90;;;;;;5023268;28;20209;-57
2023/09/28 03:36:08;;;;;;;4.50;4.00;;;15.10;99.90;;;;;;5022920;28;20226;-63
2023/09/28 03:38:35;;;;;;;4.90;4.20;;;15.20;99.90;;;;;;5020046;28;20234;-56
2023/09/28 03:41:04;;;;;;;6.13;4.30;;;15.10;99.90;;;;;;5020140;28;20214;-58
2023/09/28 03:43:31;;;;;;;6.37;4.43;;;15.10;99.90;;;;;;5022664;28;20206;-56
2023/09/28 03:45:58;;;;;;;6.00;4.40;;;15.10;99.90;;;;;;5022414;28;20714;-56
2023/09/28 03:48:25;;;;;;;6.83;4.57;;;15.00;99.90;;;;;;5020228;28;20303;-56
2023/09/28 03:50:52;;;;;;;5.17;4.67;;;14.90;99.90;;;;;;5019352;28;20206;-57
2023/09/28 03:53:19;;;;;;;5.33;3.83;;;14.90;99.90;;;;;;5027063;28;20218;-56
2023/09/28 03:55:47;;;;;;;6.30;4.87;;;14.90;99.90;;;;;;5019054;28;20564;-56
2023/09/28 03:58:15;;;;;;;5.57;4.57;;;14.80;99.90;;;;;;5019895;28;20264;-56
2023/09/28 04:00:43;;;;;;;5.03;4.53;;;14.70;99.90;;;;;;5030905;28;20211;-55
2023/09/28 04:03:11;;;;;;;5.73;4.63;;;14.60;99.90;;;;;;5022791;28;20253;-62
2023/09/28 04:05:38;;;;;;;6.33;4.47;;;14.60;99.90;;;;;;5019005;28;20234;-58
2023/09/28 04:08:05;;;;;;;6.00;5.30;;;14.60;99.90;;;;;;5019449;28;20215;-56
2023/09/28 04:10:33;;;;;;;5.33;4.83;;;14.40;99.90;;;;;;5022311;28;20205;-61
2023/09/28 04:13:01;;;;;;;6.23;4.77;;;14.50;99.90;;;;;;5022546;28;20661;-56
2023/09/28 04:15:30;;;;;;;8.10;5.27;;;14.50;99.90;;;;;;5019897;28;20321;-55
2023/09/28 04:17:57;;;;;;;7.87;4.77;;;14.60;99.90;;;;;;5025288;28;20214;-58
2023/09/28 04:20:23;;;;;;;13.73;5.10;;;14.60;99.90;;;;;;5020633;28;20217;-56
2023/09/28 04:22:50;;;;;;;8.23;5.17;;;14.70;99.90;;;;;;5019108;28;20434;-59
2023/09/28 04:25:19;;;;;;;7.43;5.03;;;14.80;99.90;;;;;;5019399;28;20221;-57
2023/09/28 04:27:46;;;;;;;5.13;4.63;;;14.90;99.90;;;;;;5022221;28;20217;-56
2023/09/28 04:30:14;;;;;;;5.20;4.70;;;15.00;99.90;;;;;;5021880;28;20257;-56
2023/09/28 04:32:42;;;;;;;6.03;4.63;;;15.00;99.90;;;;;;5018814;28;20654;-58
2023/09/28 04:35:10;;;;;;;4.77;4.23;;;15.00;99.90;;;;;;5018800;28;20204;-57
2023/09/28 04:37:37;;;;;;;7.43;4.40;;;15.00;99.90;;;;;;5022796;28;20207;-57
2023/09/28 04:40:05;;;;;;;8.37;4.73;;;15.00;99.90;;;;;;5022360;28;20238;-56
2023/09/28 04:42:31;;;;;;;5.23;4.67;;;15.00;99.90;;;;;;5019243;28;20238;-56
2023/09/28 04:44:58;;;;;;;4.57;4.17;;;15.10;99.90;;;;;;5018622;28;20207;-56
2023/09/28 04:47:25;;;;;;;5.10;4.40;;;15.10;99.90;;;;;;5020297;28;20239;-59
2023/09/28 04:49:54;;;;;;;5.40;4.80;;;15.00;99.90;;;;;;5022624;28;20206;-56
2023/09/28 04:52:22;;;;;;;7.53;4.93;;;15.00;99.90;;;;;;5020654;28;20221;-56
2023/09/28 04:54:49;;;;;;;8.20;4.57;;;15.00;99.90;;;;;;5018413;28;20618;-58
2023/09/28 04:57:16;;;;;;;6.60;4.60;;;15.00;99.90;;;;;;5025967;28;20226;-56
2023/09/28 04:59:42;;;;;;;4.80;4.30;;;15.10;99.90;;;;;;5018096;28;20347;-55
2023/09/28 05:02:09;;;;;;;5.07;4.23;;;15.10;99.90;;;;;;5018318;28;20677;-57
2023/09/28 05:04:36;;;;;;;5.53;4.43;;;15.10;99.90;;;;;;5021741;28;20589;-56
2023/09/28 05:07:04;;;;;;;7.60;5.27;;;15.20;99.90;;;;;;5024945;28;20277;-56
2023/09/28 05:09:31;;;;;;;6.57;5.10;;;15.20;99.90;;;;;;5025508;28;20213;-56
2023/09/28 05:12:00;;;;;;;8.20;5.17;;;15.30;99.90;;;;;;5025419;28;20210;-57
2023/09/28 05:14:27;;;;;;;6.77;4.90;;;15.30;99.90;;;;;;5031592;28;20293;-56
2023/09/28 05:16:54;;;;;;;6.70;4.70;;;15.20;99.90;;;;;;5027758;28;20222;-59
2023/09/28 05:19:21;;;;;;;6.33;4.50;;;15.10;99.90;;;;;;5024441;28;20230;-56
2023/09/28 05:21:48;;;;;;;5.00;4.50;;;15.10;99.90;;;;;;5026721;28;20206;-57
2023/09/28 05:24:16;;;;;;;6.87;4.90;;;15.30;99.90;;;;;;5025006;28;20360;-55
2023/09/28 05:26:43;;;;;;;6.87;4.80;;;15.10;99.90;;;;;;5026054;28;20253;-56
2023/09/28 05:29:10;;;;;;;6.57;5.18;;;15.20;99.90;;;;;;5025486;28;20300;-58
2023/09/28 05:31:37;;;;;;;6.90;5.23;;;15.20;99.90;;;;;;5025245;28;20230;-55
2023/09/28 05:34:04;;;;;;;7.20;5.43;;;15.30;99.90;;;;;;5025452;28;20203;-58
2023/09/28 05:36:30;;;;;;;7.40;5.23;;;15.20;99.90;;;;;;5022248;28;20234;-55
2023/09/28 05:38:57;;;;;;;6.23;4.97;;;15.10;99.90;;;;;;5021773;28;20349;-54
2023/09/28 05:41:25;;;;;;;5.53;4.70;;;15.20;99.90;;;;;;5023463;28;20210;-59
2023/09/28 05:43:52;;;;;;;8.30;5.17;;;15.30;99.90;;;;;;5024726;28;20210;-57
2023/09/28 05:46:18;;;;;;;5.63;4.60;;;15.40;99.90;;;;;;5023763;28;20234;-56
2023/09/28 05:48:45;;;;;;;5.25;4.75;;;15.50;99.90;;;;;;5026127;28;20206;-55
2023/09/28 05:51:12;;;;;;;10.48;4.90;;;15.50;99.90;;;;;;5024980;28;20210;-59
2023/09/28 05:53:39;;;;;;;5.60;4.27;;;15.50;99.90;;;;;;5021238;28;20207;-56
2023/09/28 05:56:05;;;;;;;6.50;4.60;;;15.60;99.90;;;;;;5020904;28;20238;-56
2023/09/28 05:58:33;;;;;;;7.73;4.37;;;15.70;99.90;;;;;;5023862;28;20764;-57
2023/09/28 06:01:07;;;;;;;12.82;4.75;;;15.60;99.90;;;;;;5024747;28;20232;-58
2023/09/28 06:03:35;;;;;;;6.10;4.43;;;15.50;99.90;;;;;;5029845;28;20218;-56
2023/09/28 06:06:11;;;;;;;8.20;4.50;;;15.60;99.90;;;;;;5020450;28;20313;-56
2023/09/28 06:08:39;;;;;;;5.87;4.67;;;15.70;99.90;;;;;;5024740;28;20206;-56
2023/09/28 06:11:05;;;;;;;4.80;4.35;;;15.80;99.90;;;;;;5024510;28;20215;-56
2023/09/28 06:13:34;;;;;;;6.30;4.60;;;15.80;99.90;;;;;;5024232;28;20218;-55
2023/09/28 06:16:00;;;;;;;6.60;5.47;;;15.90;99.90;;;;;;5025720;28;20223;-59
2023/09/28 06:18:27;;;;;;;6.30;4.80;;;16.00;99.90;;;;;;5023083;28;20223;-56
2023/09/28 06:20:54;;;;;;;6.07;4.70;;;16.10;99.90;;;;;;5024220;28;20233;-56
2023/09/28 06:23:21;;;;;;;5.50;4.23;;;16.20;99.90;;;;;;5023709;28;20210;-56
2023/09/28 06:25:48;;;;;;;7.57;4.67;;;16.20;99.90;;;;;;5020469;28;20226;-56
2023/09/28 06:28:15;;;;;;;9.27;4.80;;;16.30;99.90;;;;;;5020619;28;20207;-59
2023/09/28 06:30:43;;;;;;;8.65;4.53;;;16.20;99.90;;;;;;5024240;28;20202;-56
2023/09/28 06:33:09;;;;;;;6.77;4.43;;;16.10;99.90;;;;;;5023928;28;20644;-56
2023/09/28 06:35:36;;;;;;;5.00;4.47;;;16.10;99.90;;;;;;5023887;28;20222;-59
2023/09/28 06:38:03;;;;;;;5.40;4.20;;;16.10;99.90;;;;;;5024293;28;20239;-57
2023/09/28 06:40:30;;;;;;;5.80;4.47;;;16.30;99.90;;;;;;5021795;28;20230;-55
2023/09/28 06:42:57;;;;;;;7.80;4.30;;;16.70;99.90;;;;;;5021175;28;20263;-55
2023/09/28 06:45:23;;;;;;;4.32;3.50;;;17.10;99.90;;;;;;5021695;28;20211;-56
2023/09/28 06:47:53;;;;;;;5.82;3.95;;;17.40;99.90;;;;;;5024363;28;20222;-55
2023/09/28 06:50:20;;;;;;;6.20;3.60;;;17.60;99.90;;;;;;5023746;28;20206;-55
2023/09/28 06:52:46;;;;;;;3.75;3.30;;;17.90;99.90;;;;;;5020752;28;20215;-55
2023/09/28 06:55:13;;;;;;;4.63;3.50;;;18.30;99.90;;;;;;5020135;28;20621;-55
2023/09/28 06:57:39;;;;;;;7.50;3.28;;;18.70;99.90;;;;;;5023726;28;20217;-56
2023/09/28 07:00:09;;;;;;;4.10;3.10;;;19.20;99.90;;;;;;5024873;28;20250;-55
2023/09/28 07:02:36;;;;;;;5.75;3.08;;;19.60;99.90;;;;;;5023649;28;20261;-55
2023/09/28 07:05:04;;;;;;;4.28;3.15;;;20.20;99.90;;;;;;5023650;28;20213;-58
2023/09/28 07:07:31;;;;;;;5.32;3.50;;;21.30;99.90;;;;;;5021090;28;20642;-55
2023/09/28 07:09:58;;;;;;;5.22;3.08;;;22.20;99.90;;;;;;5020237;28;20203;-60
2023/09/28 07:12:25;;;;;;;4.63;3.17;;;22.50;99.90;;;;;;5021163;28;20343;-55
2023/09/28 07:14:51;;;;;;;4.82;3.30;;;22.20;99.90;;;;;;5023195;28;20475;-55
2023/09/28 07:17:19;;;;;;;4.07;3.22;;;21.70;99.90;;;;;;5022555;28;20236;-56
2023/09/28 07:19:45;;;;;;;4.38;3.10;;;22.00;99.90;;;;;;5020151;28;20226;-58
2023/09/28 07:22:15;;;;;;;8.60;3.03;;;22.90;99.90;;;;;;5019856;28;20574;-56
2023/09/28 07:24:42;;;;;;;3.67;2.75;;;23.70;99.90;;;;;;5019783;28;20221;-58
2023/09/28 07:27:08;;;;;;;4.47;3.35;;;24.20;99.90;;;;;;5019421;28;20226;-55
2023/09/28 07:29:35;;;;;;;6.72;3.15;;;24.30;99.90;;;;;;5021555;28;20211;-55
2023/09/28 07:32:02;;;;;;;3.72;2.95;;;24.80;99.90;;;;;;5023432;28;20477;-55
2023/09/28 07:34:29;;;;;;;3.20;2.90;;;25.10;99.90;;;;;;5021112;28;20219;-55
2023/09/28 07:36:55;;;;;;;3.55;2.60;;;25.10;99.90;;;;;;5019293;28;20719;-55
2023/09/28 07:39:23;;;;;;;4.90;2.90;;;25.00;99.90;;;;;;5020571;28;20258;-57
2023/09/28 07:41:51;;;;;;;4.70;2.85;;;25.00;99.90;;;;;;5023179;28;20290;-57
2023/09/28 07:44:18;;;;;;;5.43;2.92;;;24.90;99.90;;;;;;5022662;28;20355;-55
2023/09/28 07:46:45;;;;;;;4.72;2.53;;;24.40;99.90;;;;;;5019174;28;20273;-55
2023/09/28 07:49:14;;;;;;;6.07;3.10;;;23.90;99.90;;;;;;5019419;28;20907;-55
2023/09/28 07:51:41;;;;;;;4.28;2.83;;;23.40;99.90;;;;;;5022526;28;20206;-57
2023/09/28 07:54:07;;;;;;;6.32;3.20;;;22.70;99.90;;;;;;5022398;28;20210;-55
2023/09/28 07:56:36;;;;;;;5.13;3.13;;;21.90;99.90;;;;;;5020035;28;20584;-54
2023/09/28 07:59:03;;;;;;;3.88;2.65;;;21.30;99.90;;;;;;5019383;28;20246;-56
2023/09/28 08:01:29;;;;;;;6.32;2.90;;;20.90;99.90;;;;;;5021162;28;20221;-55
2023/09/28 08:03:56;;;;;;;7.93;3.08;;;20.70;99.90;;;;;;5022628;28;20213;-54
2023/09/28 08:06:23;;;;;;;2.90;2.60;;;20.50;99.90;;;;;;5021070;28;20673;-57
2023/09/28 08:08:49;;;;;;;4.80;2.95;;;20.20;99.90;;;;;;5019075;28;20652;-55
2023/09/28 08:11:17;;;;;;;3.53;2.63;;;20.20;99.90;;;;;;5018588;28;20202;-55
2023/09/28 08:13:45;;;;;;;5.20;2.97;;;20.10;99.90;;;;;;5019136;28;20217;-55
2023/09/28 08:16:12;;;;;;;3.67;2.72;;;20.10;99.90;;;;;;5019144;28;20341;-55
2023/09/28 08:18:39;;;;;;;5.15;2.65;;;20.10;99.90;;;;;;5022376;28;20228;-55
2023/09/28 08:21:06;;;;;;;4.95;2.80;;;20.30;99.90;;;;;;5022630;28;20233;-55
2023/09/28 08:23:33;;;;;;;3.35;2.72;;;20.40;99.90;;;;;;5014134;28;20242;-55
2023/09/28 08:25:59;;;;;;;4.32;3.30;;;20.40;99.90;;;;;;5021758;28;20245;-55
2023/09/28 08:28:26;;;;;;;4.13;2.70;;;20.50;99.90;;;;;;5021116;28;20215;-54
2023/09/28 08:30:55;;;;;;;3.47;2.58;;;20.60;99.90;;;;;;5019016;28;20206;-55
2023/09/28 08:33:22;;;;;;;3.80;2.70;;;20.60;99.90;;;;;;5019589;28;20217;-54
2023/09/28 08:35:50;;;;;;;3.22;2.85;;;20.70;99.90;;;;;;5022140;28;20226;-55
2023/09/28 08:38:20;;;;;;;4.38;2.95;;;20.80;99.90;;;;;;5021975;28;20211;-55
2023/09/28 08:40:47;;;;;;;3.85;2.58;;;20.90;99.90;;;;;;5025736;28;20222;-54
2023/09/28 08:43:21;;;;;;;3.70;2.67;;;20.90;99.90;;;;;;5026472;28;20206;-54
2023/09/28 08:45:50;;;;;;;6.28;2.88;;;21.00;99.90;;;;;;5026933;28;20234;-55
2023/09/28 08:48:22;;;;;;;6.40;2.72;;;21.10;99.90;;;;;;5026423;28;20206;-54
2023/09/28 08:50:52;;;;;;;4.30;2.65;;;21.30;99.90;;;;;;5026285;28;20203;-54
2023/09/28 08:53:20;;;;;;;6.10;3.03;;;21.40;99.90;;;;;;5025959;28;20678;-54
2023/09/28 08:55:47;;;;;;;4.50;2.67;;;21.50;99.90;;;;;;5022300;28;20239;-54
2023/09/28 08:58:15;;;;;;;2.95;2.60;;;21.80;99.90;;;;;;5022617;28;20203;-56
2023/09/28 09:00:42;;;;;;;3.47;2.60;;;21.90;99.90;;;;;;5030692;28;20696;-55
2023/09/28 09:03:09;;;;;;;4.13;2.85;;;22.00;99.90;;;;;;5022547;28;20214;-54
2023/09/28 09:05:41;;;;;;;3.67;2.70;;;22.20;99.90;;;;;;5024495;28;20230;-55
2023/09/28 09:08:09;;;;;;;4.00;2.90;;;22.30;99.90;;;;;;5025800;28;20692;-54
2023/09/28 09:10:37;;;;;;;4.10;2.38;;;22.40;99.90;;;;;;5025861;28;20298;-54
2023/09/28 09:13:04;;;;;;;3.17;2.78;;;22.50;99.90;;;;;;5025721;28;20208;-58
2023/09/28 09:15:32;;;;;;;3.20;2.40;;;22.60;99.90;;;;;;5023724;28;20230;-54
2023/09/28 09:18:00;;;;;;;4.13;2.63;;;22.70;99.90;;;;;;5022154;28;20246;-55
2023/09/28 09:20:29;;;;;;;4.25;2.70;;;22.70;99.90;;;;;;5023136;28;20250;-55
2023/09/28 09:23:10;;;;;;;4.95;2.60;;;22.80;99.90;;;;;;5025545;28;20723;-55
2023/09/28 09:25:41;;;;;;;4.22;2.53;;;22.90;99.90;;;;;;5022565;28;20602;-55
2023/09/28 09:28:08;;;;;;;4.28;2.70;;;23.10;99.90;;;;;;5022072;28;20221;-55
2023/09/28 09:30:36;;;;;;;4.55;2.40;;;23.20;99.90;;;;;;5024023;28;20673;-55
2023/09/28 09:33:04;;;;;;;4.55;2.90;;;23.40;99.90;;;;;;5025661;28;20202;-56
2023/09/28 09:35:31;;;;;;;4.60;2.58;;;23.50;99.90;;;;;;5022929;28;20317;-61
2023/09/28 09:37:59;;;;;;;3.92;2.70;;;23.60;99.90;;;;;;5021580;28;20648;-57
2023/09/28 09:40:26;;;;;;;6.53;4.22;;;23.70;99.90;;;;;;5022226;28;20586;-58
2023/09/28 09:42:53;;;;;;;3.92;2.83;;;23.80;99.90;;;;;;5024702;28;20245;-59
2023/09/28 09:45:20;;;;;;;4.45;2.72;;;23.90;99.90;;;;;;5032786;28;20225;-58
2023/09/28 09:47:48;;;;;;;4.18;2.70;;;23.90;99.90;;;;;;5025090;28;20671;-59
2023/09/28 09:50:16;;;;;;;3.70;3.08;;;24.00;99.90;;;;;;5024755;28;20202;-58
2023/09/28 09:52:44;;;;;;;4.45;2.72;;;24.00;99.90;;;;;;5031634;28;20212;-58
2023/09/28 09:55:12;;;;;;;5.72;3.00;;;24.10;99.90;;;;;;5024456;28;20214;-58
2023/09/28 09:57:41;;;;;;;5.13;3.25;;;24.20;99.90;;;;;;5022294;28;20229;-61
2023/09/28 10:00:09;;;;;;;10.43;3.90;;;24.30;99.90;;;;;;5028255;28;20240;-58
2023/09/28 10:02:40;;;;;;;3.70;2.50;;;24.40;99.90;;;;;;5024797;28;20218;-55
2023/09/28 10:05:12;;;;;;;4.20;2.67;;;24.40;99.90;;;;;;5024042;28;20711;-57
2023/09/28 10:07:40;;;;;;;5.95;3.47;;;24.40;99.90;;;;;;5021918;28;20276;-60
2023/09/28 10:10:07;;;;;;;4.78;3.00;;;24.50;99.90;;;;;;5027442;28;20297;-58
2023/09/28 10:12:36;;;;;;;4.45;2.67;;;24.70;99.90;;;;;;5022550;28;20206;-59
2023/09/28 10:15:03;;;;;;;7.65;2.75;;;24.80;99.90;;;;;;5020921;28;20309;-58
2023/09/28 10:17:31;;;;;;;4.50;2.78;;;24.90;99.90;;;;;;5021700;28;20615;-58
2023/09/28 10:20:00;;;;;;;7.30;3.85;;;25.10;99.90;;;;;;5024334;28;20214;-57
2023/09/28 10:22:28;;;;;;;7.13;3.38;;;25.20;99.90;;;;;;5024258;28;20226;-57
2023/09/28 10:24:54;;;;;;;3.67;2.70;;;25.30;99.90;;;;;;5024366;28;20687;-57
2023/09/28 10:27:21;;;;;;;3.53;2.78;;;25.20;99.90;;;;;;5024241;28;20238;-57
2023/09/28 10:29:49;;;;;;;7.47;3.20;;;25.10;99.90;;;;;;5020846;28;20214;-60
2023/09/28 10:32:28;;;;;;;6.38;4.40;;;25.10;99.90;;;;;;5021076;28;20211;-59
2023/09/28 10:35:13;;;;;;;3.08;2.60;;;25.20;99.90;;;;;;5020460;28;20202;-55
2023/09/28 10:37:39;;;;;;;4.30;2.72;;;25.40;99.90;;;;;;5023574;28;20305;-54
2023/09/28 10:40:07;;;;;;;5.00;2.53;;;25.60;99.80;;;;;;5026074;28;20206;-55
2023/09/28 10:42:35;;;;;;;5.28;3.10;;;25.80;99.10;;;;;;5022219;28;20207;-55
2023/09/28 10:45:07;;;;;;;4.32;2.60;;;25.90;98.60;;;;;;5023737;28;20214;-58
2023/09/28 10:47:35;;;;;;;5.18;2.90;;;26.00;99.20;;;;;;5023412;28;20656;-54
2023/09/28 10:50:04;;;;;;;4.75;2.70;;;25.90;98.60;;;;;;5024078;28;20305;-57
2023/09/28 10:52:31;;;;;;;4.35;2.53;;;25.90;98.70;;;;;;5022243;28;20210;-55
2023/09/28 10:54:58;;;;;;;6.22;3.35;;;25.70;98.40;;;;;;5020322;28;20560;-55
2023/09/28 10:57:31;;;;;;;3.92;3.00;;;25.90;98.30;;;;;;5020456;28;20245;-55
2023/09/28 11:00:00;;;;;;;5.22;2.72;;;26.00;98.30;;;;;;5031469;28;20257;-57
2023/09/28 11:02:28;;;;;;;4.90;2.90;;;26.10;97.70;;;;;;5022660;28;20668;-55
2023/09/28 11:04:58;;;;;;;5.72;2.72;;;26.20;97.20;;;;;;5024400;28;20214;-55
2023/09/28 11:07:25;;;;;;;3.10;2.40;;;26.20;96.40;;;;;;5022875;28;20703;-55
2023/09/28 11:09:53;;;;;;;3.30;2.67;;;26.30;96.60;;;;;;5020086;28;20207;-55
2023/09/28 11:12:19;;;;;;;3.17;2.63;;;26.30;96.60;;;;;;5027673;28;20207;-56
2023/09/28 11:14:46;;;;;;;4.72;2.53;;;26.40;96.10;;;;;;5020093;28;20211;-55
2023/09/28 11:17:13;;;;;;;4.35;2.40;;;26.50;96.10;;;;;;5019889;28;20222;-55
2023/09/28 11:19:41;;;;;;;4.43;2.60;;;26.50;95.80;;;;;;5022499;28;20219;-54
2023/09/28 11:22:08;;;;;;;2.63;2.40;;;26.60;95.60;;;;;;5023324;28;20568;-53
2023/09/28 11:24:35;;;;;;;3.95;2.53;;;26.60;95.80;;;;;;5021430;28;20288;-54
2023/09/28 11:27:02;;;;;;;2.95;2.45;;;26.60;96.20;;;;;;5019575;28;20231;-54
2023/09/28 11:29:30;;;;;;;5.32;2.17;;;26.70;95.60;;;;;;5020552;28;20242;-55
2023/09/28 11:31:56;;;;;;;5.40;2.65;;;26.80;95.20;;;;;;5023486;28;20297;-54
2023/09/28 11:34:30;;;;;;;4.43;2.60;;;26.90;95.20;;;;;;5023391;28;20210;-54
2023/09/28 11:36:59;;;;;;;3.15;2.35;;;26.90;94.50;;;;;;5019407;28;20252;-54
2023/09/28 11:39:26;;;;;;;4.60;3.05;;;26.90;94.80;;;;;;5019726;28;20221;-55
2023/09/28 11:41:57;;;;;;;2.92;2.30;;;26.90;94.60;;;;;;5022791;28;20230;-54
2023/09/28 11:44:26;;;;;;;3.05;2.53;;;26.90;93.80;;;;;;5023160;28;20287;-60
2023/09/28 11:46:53;;;;;;;4.68;2.53;;;27.10;93.70;;;;;;5018947;28;20234;-54
2023/09/28 11:49:21;;;;;;;3.10;2.40;;;27.20;93.40;;;;;;5019563;28;20592;-55
2023/09/28 11:51:48;;;;;;;5.63;2.60;;;27.20;93.20;;;;;;5022544;28;20209;-56
2023/09/28 11:54:18;;;;;;;5.90;2.88;;;27.30;93.00;;;;;;5022214;28;20206;-55
2023/09/28 11:56:45;;;;;;;3.25;2.55;;;27.40;92.80;;;;;;5027858;28;20239;-54
2023/09/28 11:59:15;;;;;;;4.85;2.45;;;27.40;92.40;;;;;;5019544;28;20354;-55
2023/09/28 12:01:42;;;;;;;5.43;2.75;;;27.40;92.60;;;;;;5021519;28;20316;-54
2023/09/28 12:04:09;;;;;;;5.55;2.72;;;27.50;92.50;;;;;;5022991;28;20221;-55
2023/09/28 12:06:37;;;;;;;4.65;2.70;;;27.50;92.20;;;;;;5020350;28;20364;-55
2023/09/28 12:09:05;;;;;;;5.32;2.65;;;27.50;92.30;;;;;;5019379;28;20629;-55
2023/09/28 12:11:34;;;;;;;5.82;2.60;;;27.50;92.20;;;;;;5020754;28;20293;-55
2023/09/28 12:14:00;;;;;;;5.90;2.70;;;27.40;91.80;;;;;;5022319;28;20672;-54
2023/09/28 12:16:27;;;;;;;4.95;2.72;;;27.60;92.10;;;;;;5022229;28;20238;-55
2023/09/28 12:18:54;;;;;;;2.95;2.20;;;27.60;91.60;;;;;;5026502;28;20207;-57
2023/09/28 12:21:21;;;;;;;4.55;2.42;;;27.70;91.10;;;;;;5026652;28;20301;-55
2023/09/28 12:23:47;;;;;;;5.57;2.40;;;27.70;91.00;;;;;;5022290;28;20516;-55
2023/09/28 12:26:15;;;;;;;6.50;2.30;;;27.70;91.00;;;;;;5022591;28;20317;-54
2023/09/28 12:28:44;;;;;;;5.25;2.20;;;27.90;90.80;;;;;;5020023;28;20252;-55
2023/09/28 12:31:12;;;;;;;2.80;2.20;;;27.90;90.80;;;;;;5018256;28;20334;-54
2023/09/28 12:33:39;;;;;;;2.80;2.47;;;28.00;90.30;;;;;;5020843;28;20258;-56
2023/09/28 12:36:06;;;;;;;2.83;2.38;;;28.00;90.40;;;;;;5024636;28;20705;-54
2023/09/28 12:38:33;;;;;;;6.63;2.60;;;28.00;91.00;;;;;;5021194;28;20210;-55
2023/09/28 12:41:00;;;;;;;3.53;2.10;;;28.00;90.90;;;;;;5028891;28;20241;-61
2023/09/28 12:43:27;;;;;;;2.85;2.30;;;28.00;91.10;;;;;;5021917;28;20210;-59
2023/09/28 12:45:55;;;;;;;3.30;2.30;;;28.00;90.80;;;;;;5018070;28;20230;-58
2023/09/28 12:48:22;;;;;;;4.30;2.65;;;28.10;90.50;;;;;;5018190;28;20665;-61